createdAt,value
2019-02-16T00:00:02.104Z,92.60
2019-02-16T00:02:30.305Z,92.60
2019-02-16T00:04:56.729Z,92.60
2019-02-16T00:07:23.028Z,92.60
2019-02-16T00:10:09.177Z,92.60
2019-02-16T00:12:35.565Z,92.60
2019-02-16T00:15:03.299Z,92.70
2019-02-16T00:17:29.641Z,92.60
2019-02-16T00:19:56.057Z,92.70
2019-02-16T00:22:22.346Z,92.70
2019-02-16T00:24:48.664Z,92.80
2019-02-16T00:27:14.951Z,92.90
2019-02-16T00:29:41.466Z,92.80
2019-02-16T00:32:07.855Z,92.90
2019-02-16T00:34:34.246Z,92.80
2019-02-16T00:37:00.545Z,92.90
2019-02-16T00:39:26.811Z,92.90
2019-02-16T00:41:53.075Z,92.80
2019-02-16T00:44:19.472Z,92.90
2019-02-16T00:46:45.748Z,92.90
2019-02-16T00:49:12.174Z,92.90
2019-02-16T00:51:38.447Z,92.90
2019-02-16T00:54:04.864Z,92.90
2019-02-16T00:56:31.153Z,93.00
2019-02-16T00:58:57.616Z,93.00
2019-02-16T01:01:24.134Z,93.00
2019-02-16T01:03:50.524Z,93.00
2019-02-16T01:06:17.037Z,93.00
2019-02-16T01:08:43.434Z,93.20
2019-02-16T01:11:09.827Z,93.20
2019-02-16T01:13:36.346Z,93.30
2019-02-16T01:16:02.742Z,93.30
2019-02-16T01:18:29.180Z,93.30
2019-02-16T01:20:55.643Z,93.30
2019-02-16T01:23:21.921Z,93.40
2019-02-16T01:25:48.367Z,93.40
2019-02-16T01:28:14.861Z,93.40
2019-02-16T01:30:41.171Z,93.40
2019-02-16T01:33:07.604Z,93.40
2019-02-16T01:35:34.037Z,93.30
2019-02-16T01:38:00.325Z,93.30
2019-02-16T01:40:26.741Z,93.20
2019-02-16T01:42:53.149Z,93.20
2019-02-16T01:45:19.587Z,93.20
2019-02-16T01:47:45.994Z,93.20
2019-02-16T01:50:12.432Z,93.30
2019-02-16T01:52:38.736Z,93.30
2019-02-16T01:55:07.229Z,93.40
2019-02-16T01:57:33.738Z,93.40
2019-02-16T02:00:00.006Z,93.50
2019-02-16T02:02:26.376Z,93.40
2019-02-16T02:04:53.119Z,93.40
2019-02-16T02:07:19.412Z,93.30
2019-02-16T02:09:45.800Z,93.40
2019-02-16T02:12:12.405Z,93.50
2019-02-16T02:14:38.945Z,93.50
2019-02-16T02:17:05.324Z,93.40
2019-02-16T02:19:31.742Z,93.40
2019-02-16T02:21:58.167Z,93.40
2019-02-16T02:24:24.492Z,93.40
2019-02-16T02:26:50.874Z,93.40
2019-02-16T02:29:17.167Z,93.40
2019-02-16T02:31:43.512Z,93.40
2019-02-16T02:34:09.787Z,93.30
2019-02-16T02:36:36.032Z,93.30
2019-02-16T02:39:03.890Z,93.40
2019-02-16T02:41:30.138Z,93.40
2019-02-16T02:43:56.464Z,93.40
2019-02-16T02:46:22.969Z,93.60
2019-02-16T02:48:49.336Z,93.70
2019-02-16T02:51:15.776Z,93.70
2019-02-16T02:53:42.207Z,93.60
2019-02-16T02:56:08.624Z,93.60
2019-02-16T02:58:34.920Z,93.60
2019-02-16T03:01:01.340Z,93.60
2019-02-16T03:03:27.817Z,93.60
2019-02-16T03:05:54.240Z,93.50
2019-02-16T03:08:20.640Z,93.60
2019-02-16T03:10:46.951Z,93.70
2019-02-16T03:13:13.380Z,93.70
2019-02-16T03:15:39.803Z,93.60
2019-02-16T03:18:06.250Z,93.70
2019-02-16T03:20:32.643Z,93.70
2019-02-16T03:23:15.940Z,93.80
2019-02-16T03:26:02.341Z,93.70
2019-02-16T03:28:32.494Z,93.70
2019-02-16T03:31:14.871Z,93.70
2019-02-16T03:34:00.062Z,93.60
2019-02-16T03:36:38.737Z,93.70
2019-02-16T03:39:08.387Z,93.70
2019-02-16T03:41:34.775Z,93.70
2019-02-16T03:44:01.252Z,93.60
2019-02-16T03:46:27.668Z,93.70
2019-02-16T03:48:53.956Z,93.60
2019-02-16T03:51:20.377Z,93.60
2019-02-16T03:53:46.700Z,93.60
2019-02-16T03:56:13.095Z,93.60
2019-02-16T03:58:39.432Z,93.60
2019-02-16T04:01:05.821Z,93.90
2019-02-16T04:03:32.207Z,93.70
2019-02-16T04:05:58.677Z,93.70
2019-02-16T04:08:25.078Z,93.70
2019-02-16T04:10:51.341Z,93.70
2019-02-16T04:13:17.632Z,93.80
2019-02-16T04:15:44.089Z,93.80
2019-02-16T04:18:10.397Z,93.80
2019-02-16T04:20:36.786Z,93.70
2019-02-16T04:23:03.207Z,93.70
2019-02-16T04:25:29.599Z,93.80
2019-02-16T04:27:55.949Z,93.80
2019-02-16T04:30:22.344Z,93.70
2019-02-16T04:32:48.757Z,93.70
2019-02-16T04:35:15.027Z,93.70
2019-02-16T04:37:41.453Z,93.80
2019-02-16T04:40:07.960Z,93.80
2019-02-16T04:42:34.324Z,93.80
2019-02-16T04:45:00.732Z,93.90
2019-02-16T04:47:27.248Z,94.00
2019-02-16T04:49:53.674Z,94.10
2019-02-16T04:52:19.963Z,94.40
2019-02-16T04:54:46.377Z,94.40
2019-02-16T04:57:12.819Z,94.60
2019-02-16T04:59:39.097Z,94.50
2019-02-16T05:02:05.501Z,95.10
2019-02-16T05:04:31.793Z,95.40
2019-02-16T05:06:58.223Z,95.30
2019-02-16T05:09:24.565Z,95.60
2019-02-16T05:11:50.865Z,95.50
2019-02-16T05:14:17.286Z,95.40
2019-02-16T05:16:43.724Z,95.40
2019-02-16T05:19:10.166Z,95.80
2019-02-16T05:21:36.659Z,96.20
2019-02-16T05:24:03.162Z,96.40
2019-02-16T05:26:29.519Z,96.20
2019-02-16T05:28:55.933Z,95.80
2019-02-16T05:31:22.221Z,95.70
2019-02-16T05:33:48.504Z,95.50
2019-02-16T05:36:15.065Z,95.40
2019-02-16T05:38:41.343Z,95.20
2019-02-16T05:41:07.672Z,95.20
2019-02-16T05:43:33.954Z,95.10
2019-02-16T05:46:00.240Z,95.00
2019-02-16T05:48:26.562Z,95.00
2019-02-16T05:50:52.977Z,95.00
2019-02-16T05:53:20.274Z,95.00
2019-02-16T05:55:46.746Z,94.90
2019-02-16T05:58:13.069Z,94.90
2019-02-16T06:00:39.491Z,94.90
2019-02-16T06:03:05.929Z,94.90
2019-02-16T06:05:32.228Z,94.90
2019-02-16T06:07:58.877Z,94.80
2019-02-16T06:10:25.179Z,94.60
2019-02-16T06:12:51.687Z,94.50
2019-02-16T06:15:18.087Z,94.40
2019-02-16T06:17:44.476Z,94.20
2019-02-16T06:20:11.000Z,94.00
2019-02-16T06:22:37.364Z,94.00
2019-02-16T06:25:04.957Z,94.00
2019-02-16T06:27:31.358Z,93.90
2019-02-16T06:29:57.698Z,93.90
2019-02-16T06:32:23.986Z,93.80
2019-02-16T06:34:52.302Z,93.80
2019-02-16T06:37:20.492Z,93.70
2019-02-16T06:39:48.094Z,93.70
2019-02-16T06:42:14.504Z,93.70
2019-02-16T06:44:40.940Z,93.80
2019-02-16T06:47:07.416Z,93.80
2019-02-16T06:49:33.843Z,93.90
2019-02-16T06:52:00.213Z,93.90
2019-02-16T06:54:26.579Z,94.00
2019-02-16T06:57:01.499Z,94.00
2019-02-16T06:59:27.996Z,94.10
2019-02-16T07:01:54.535Z,94.20
2019-02-16T07:04:21.001Z,94.40
2019-02-16T07:06:47.305Z,94.40
2019-02-16T07:09:13.566Z,94.50
2019-02-16T07:11:40.057Z,94.50
2019-02-16T07:14:06.550Z,94.60
2019-02-16T07:16:37.572Z,94.60
2019-02-16T07:19:05.820Z,95.10
2019-02-16T07:21:32.244Z,95.00
2019-02-16T07:23:58.544Z,95.20
2019-02-16T07:26:25.185Z,95.00
2019-02-16T07:28:51.421Z,95.30
2019-02-16T07:31:17.893Z,95.20
2019-02-16T07:33:44.475Z,95.30
2019-02-16T07:36:10.984Z,95.70
2019-02-16T07:38:37.321Z,95.40
2019-02-16T07:41:03.822Z,95.40
2019-02-16T07:43:34.722Z,95.40
2019-02-16T07:46:03.069Z,95.60
2019-02-16T07:48:31.391Z,95.60
2019-02-16T07:50:59.672Z,95.70
2019-02-16T07:53:33.783Z,95.70
2019-02-16T07:56:11.136Z,95.70
2019-02-16T07:58:51.323Z,95.70
2019-02-16T08:01:19.779Z,95.70
2019-02-16T08:03:47.974Z,95.70
2019-02-16T08:06:31.318Z,95.70
2019-02-16T08:08:59.506Z,95.70
2019-02-16T08:11:27.831Z,95.70
2019-02-16T08:13:58.081Z,95.70
2019-02-16T08:16:32.246Z,95.80
2019-02-16T08:19:06.794Z,95.80
2019-02-16T08:21:44.233Z,96.00
2019-02-16T08:24:30.568Z,95.80
2019-02-16T08:26:58.890Z,95.80
2019-02-16T08:29:42.169Z,95.70
2019-02-16T08:32:19.277Z,95.70
2019-02-16T08:34:58.802Z,95.70
2019-02-16T08:37:44.112Z,95.70
2019-02-16T08:40:21.014Z,95.70
2019-02-16T08:42:49.330Z,95.80
2019-02-16T08:45:34.161Z,95.80
2019-02-16T08:48:05.101Z,95.80
2019-02-16T08:50:33.281Z,95.80
2019-02-16T08:53:04.200Z,95.90
2019-02-16T08:55:35.402Z,95.90
2019-02-16T08:58:03.664Z,96.00
2019-02-16T09:00:34.581Z,95.90
2019-02-16T09:03:19.528Z,95.90
2019-02-16T09:05:53.479Z,95.90
2019-02-16T09:08:21.700Z,95.90
2019-02-16T09:10:49.954Z,95.90
2019-02-16T09:13:24.016Z,95.90
2019-02-16T09:15:52.186Z,95.90
2019-02-16T09:18:20.653Z,95.90
2019-02-16T09:21:04.166Z,95.80
2019-02-16T09:23:38.300Z,95.80
2019-02-16T09:26:18.507Z,96.10
2019-02-16T09:29:05.204Z,96.10
2019-02-16T09:31:50.015Z,96.00
2019-02-16T09:34:33.325Z,96.10
2019-02-16T09:37:01.643Z,96.10
2019-02-16T09:39:46.834Z,96.00
2019-02-16T09:42:31.634Z,96.10
2019-02-16T09:45:16.421Z,95.90
2019-02-16T09:47:44.787Z,95.90
2019-02-16T09:50:13.108Z,95.90
2019-02-16T09:52:53.287Z,95.90
2019-02-16T09:55:21.613Z,95.90
2019-02-16T09:58:01.862Z,95.80
2019-02-16T10:00:36.197Z,95.90
2019-02-16T10:03:13.442Z,95.70
2019-02-16T10:05:44.432Z,95.80
2019-02-16T10:08:15.608Z,95.80
2019-02-16T10:10:43.809Z,96.00
2019-02-16T10:13:28.594Z,96.10
2019-02-16T10:15:57.014Z,96.10
2019-02-16T10:18:25.346Z,96.00
2019-02-16T10:21:02.729Z,96.00
2019-02-16T10:23:47.702Z,95.90
2019-02-16T10:26:18.873Z,95.70
2019-02-16T10:28:49.586Z,95.60
2019-02-16T10:31:32.766Z,95.50
2019-02-16T10:34:00.980Z,95.60
2019-02-16T10:36:35.413Z,95.50
2019-02-16T10:39:09.711Z,95.60
2019-02-16T10:41:56.062Z,95.50
2019-02-16T10:44:33.072Z,95.50
2019-02-16T10:47:16.338Z,95.40
2019-02-16T10:49:50.461Z,95.20
2019-02-16T10:52:35.225Z,95.30
2019-02-16T10:55:06.135Z,95.40
2019-02-16T10:57:34.509Z,95.40
2019-02-16T11:00:02.716Z,95.60
2019-02-16T11:02:39.919Z,95.50
2019-02-16T11:05:08.339Z,95.10
2019-02-16T11:07:42.562Z,95.50
2019-02-16T11:10:17.000Z,95.30
2019-02-16T11:13:02.106Z,94.90
2019-02-16T11:15:30.561Z,94.90
2019-02-16T11:18:05.002Z,94.80
2019-02-16T11:20:48.545Z,94.00
2019-02-16T11:23:16.753Z,93.70
2019-02-16T11:25:51.029Z,93.70
2019-02-16T11:28:22.480Z,93.70
2019-02-16T11:30:56.756Z,93.00
2019-02-16T11:33:33.926Z,92.90
2019-02-16T11:36:08.115Z,93.10
2019-02-16T11:38:45.463Z,92.90
2019-02-16T11:41:18.867Z,92.80
2019-02-16T11:43:52.506Z,92.70
2019-02-16T11:46:23.397Z,92.80
2019-02-16T11:48:51.600Z,92.90
2019-02-16T11:51:22.584Z,92.40
2019-02-16T11:54:09.053Z,92.70
2019-02-16T11:56:46.239Z,93.00
2019-02-16T11:59:23.309Z,92.10
2019-02-16T12:01:57.657Z,91.80
2019-02-16T12:04:26.050Z,92.60
2019-02-16T12:07:00.324Z,92.60
2019-02-16T12:09:28.500Z,92.30
2019-02-16T12:12:02.464Z,92.20
2019-02-16T12:14:30.859Z,92.50
2019-02-16T12:17:01.805Z,92.50
2019-02-16T12:19:32.753Z,92.60
2019-02-16T12:22:09.725Z,92.80
2019-02-16T12:24:43.677Z,92.30
2019-02-16T12:27:20.833Z,92.20
2019-02-16T12:29:49.018Z,92.20
2019-02-16T12:32:17.405Z,91.10
2019-02-16T12:34:45.700Z,90.70
2019-02-16T12:37:22.866Z,91.50
2019-02-16T12:39:53.765Z,91.30
2019-02-16T12:42:38.764Z,91.40
2019-02-16T12:45:18.514Z,91.40
2019-02-16T12:47:49.745Z,90.70
2019-02-16T12:50:26.924Z,91.60
2019-02-16T12:52:57.849Z,91.80
2019-02-16T12:55:26.025Z,91.80
2019-02-16T12:57:57.257Z,91.50
2019-02-16T13:00:28.104Z,90.70
2019-02-16T13:02:56.292Z,91.10
2019-02-16T13:05:27.329Z,91.70
2019-02-16T13:07:55.525Z,91.60
2019-02-16T13:10:23.695Z,91.60
2019-02-16T13:12:51.897Z,91.60
2019-02-16T13:15:20.068Z,92.00
2019-02-16T13:18:00.265Z,91.80
2019-02-16T13:20:31.149Z,91.60
2019-02-16T13:23:11.555Z,91.70
2019-02-16T13:25:42.698Z,91.80
2019-02-16T13:28:27.702Z,91.20
2019-02-16T13:31:01.856Z,89.70
2019-02-16T13:33:42.444Z,85.90
2019-02-16T13:36:13.530Z,85.90
2019-02-16T13:38:58.670Z,87.10
2019-02-16T13:41:35.673Z,86.00
2019-02-16T13:44:03.875Z,85.90
2019-02-16T13:46:44.379Z,88.20
2019-02-16T13:49:15.540Z,83.30
2019-02-16T13:51:43.708Z,86.20
2019-02-16T13:54:12.088Z,86.50
2019-02-16T13:56:40.302Z,82.90
2019-02-16T13:59:08.572Z,86.30
2019-02-16T14:01:36.774Z,88.00
2019-02-16T14:04:08.771Z,86.70
2019-02-16T14:06:43.269Z,87.30
2019-02-16T14:09:11.489Z,87.80
2019-02-16T14:11:42.647Z,88.90
2019-02-16T14:14:10.813Z,88.90
2019-02-16T14:16:41.972Z,88.60
2019-02-16T14:19:08.241Z,87.50
2019-02-16T14:21:34.534Z,86.50
2019-02-16T14:24:00.829Z,84.80
2019-02-16T14:26:27.236Z,80.90
2019-02-16T14:28:53.613Z,81.50
2019-02-16T14:31:28.048Z,75.30
2019-02-16T14:33:48.260Z,77.40
2019-02-16T14:36:14.540Z,75.90
2019-02-16T14:38:42.741Z,76.30
2019-02-16T14:41:09.001Z,75.20
2019-02-16T14:43:35.273Z,72.30
2019-02-16T14:46:01.558Z,71.40
2019-02-16T14:48:27.918Z,68.00
2019-02-16T14:50:54.285Z,66.90
2019-02-16T14:53:20.674Z,65.70
2019-02-16T15:03:08.807Z,68.50
2019-02-16T15:15:21.876Z,54.00
2019-02-16T15:17:48.185Z,68.50
2019-02-16T15:20:15.472Z,65.00
2019-02-16T15:22:41.721Z,55.50
2019-02-16T15:25:10.760Z,55.00
2019-02-16T15:27:37.169Z,55.30
2019-02-16T15:30:14.421Z,55.10
2019-02-16T15:32:44.800Z,54.70
2019-02-16T15:35:11.372Z,53.80
2019-02-16T15:37:37.873Z,54.10
2019-02-16T15:40:06.644Z,53.80
2019-02-16T15:42:32.928Z,53.60
2019-02-16T15:44:59.210Z,53.10
2019-02-16T15:47:25.486Z,53.10
2019-02-16T15:49:51.759Z,52.80
2019-02-16T15:52:18.030Z,53.20
2019-02-16T15:54:44.492Z,53.50
2019-02-16T15:57:10.812Z,53.30
2019-02-16T15:59:37.283Z,52.80
2019-02-16T16:02:03.746Z,51.50
2019-02-16T16:04:30.010Z,51.50
2019-02-16T16:06:56.389Z,51.30
2019-02-16T16:09:27.298Z,51.00
2019-02-16T16:12:07.648Z,51.40
2019-02-16T16:14:44.896Z,52.00
2019-02-16T16:17:18.834Z,51.30
2019-02-16T16:19:53.101Z,51.60
2019-02-16T16:22:21.468Z,52.40
2019-02-16T16:25:06.285Z,52.90
2019-02-16T16:27:34.464Z,53.20
2019-02-16T16:30:13.115Z,53.60
2019-02-16T16:32:44.177Z,54.10
2019-02-16T16:35:30.416Z,54.80
2019-02-16T16:38:04.579Z,55.30
2019-02-16T16:40:38.943Z,55.20
2019-02-16T16:43:13.357Z,55.50
2019-02-16T16:45:58.086Z,55.10
2019-02-16T16:48:29.009Z,55.70
2019-02-16T16:51:14.016Z,55.80
2019-02-16T16:53:57.417Z,56.30
2019-02-16T16:56:28.673Z,56.60
2019-02-16T16:59:01.539Z,57.00
2019-02-16T17:01:29.970Z,57.50
2019-02-16T17:04:01.077Z,57.70
2019-02-16T17:06:32.542Z,58.00
2019-02-16T17:09:03.448Z,58.30
2019-02-16T17:11:31.633Z,58.40
2019-02-16T17:14:12.048Z,58.80
2019-02-16T17:16:46.104Z,59.70
2019-02-16T17:19:23.518Z,59.90
2019-02-16T17:21:54.452Z,61.50
2019-02-16T17:24:22.738Z,61.80
2019-02-16T17:26:50.925Z,62.30
2019-02-16T17:29:22.134Z,62.70
2019-02-16T17:32:07.186Z,63.10
2019-02-16T17:34:38.354Z,63.20
2019-02-16T17:37:12.604Z,63.60
2019-02-16T17:39:53.053Z,64.00
2019-02-16T17:42:33.207Z,64.40
2019-02-16T17:45:07.140Z,64.80
2019-02-16T17:47:35.412Z,65.40
2019-02-16T17:50:21.908Z,65.80
2019-02-16T17:53:07.477Z,66.00
2019-02-16T17:55:50.630Z,66.40
2019-02-16T17:58:21.582Z,67.00
2019-02-16T18:00:49.866Z,67.40
2019-02-16T18:03:23.979Z,68.00
2019-02-16T18:05:54.874Z,68.50
2019-02-16T18:08:35.058Z,69.30
2019-02-16T18:11:06.190Z,69.90
2019-02-16T18:13:34.493Z,70.10
2019-02-16T18:16:05.628Z,70.70
2019-02-16T18:18:33.883Z,71.20
2019-02-16T18:21:08.022Z,71.70
2019-02-16T18:23:36.237Z,72.80
2019-02-16T18:26:04.497Z,72.40
2019-02-16T18:28:41.660Z,72.80
2019-02-16T18:31:25.015Z,73.30
2019-02-16T18:34:09.906Z,73.70
2019-02-16T18:36:56.166Z,74.20
2019-02-16T18:39:24.470Z,74.80
2019-02-16T18:41:53.194Z,75.00
2019-02-16T18:44:33.759Z,75.00
2019-02-16T18:47:04.705Z,75.30
2019-02-16T18:49:44.069Z,75.60
2019-02-16T18:52:24.904Z,75.80
2019-02-16T18:55:11.143Z,76.00
2019-02-16T18:57:56.601Z,76.40
2019-02-16T19:00:25.737Z,76.70
2019-02-16T19:03:04.311Z,77.10
2019-02-16T19:05:45.224Z,77.10
2019-02-16T19:08:15.136Z,77.40
2019-02-16T19:10:45.083Z,77.50
2019-02-16T19:13:14.952Z,77.50
2019-02-16T19:15:47.640Z,77.70
2019-02-16T19:18:31.596Z,78.40
2019-02-16T19:21:05.904Z,78.20
2019-02-16T19:23:51.094Z,78.10
2019-02-16T19:26:25.022Z,78.70
2019-02-16T19:29:05.551Z,78.50
2019-02-16T19:31:36.757Z,78.70
2019-02-16T19:34:13.731Z,78.90
2019-02-16T19:36:42.059Z,79.20
2019-02-16T19:39:25.313Z,79.60
2019-02-16T19:42:00.037Z,79.20
2019-02-16T19:44:37.613Z,79.20
2019-02-16T19:47:11.807Z,79.30
2019-02-16T19:49:40.002Z,79.60
2019-02-16T19:52:08.238Z,79.80
2019-02-16T19:54:44.259Z,79.80
2019-02-16T19:57:26.627Z,80.70
2019-02-16T20:00:05.761Z,80.90
2019-02-16T20:02:50.543Z,80.30
2019-02-16T20:05:35.341Z,80.30
2019-02-16T20:08:09.510Z,80.50
2019-02-16T20:10:49.729Z,81.00
2019-02-16T20:13:20.880Z,81.10
2019-02-16T20:15:51.792Z,81.80
2019-02-16T20:18:20.139Z,82.00
2019-02-16T20:21:05.021Z,82.10
2019-02-16T20:23:35.939Z,82.30
2019-02-16T20:26:21.016Z,82.40
2019-02-16T20:28:54.938Z,82.80
2019-02-16T20:31:29.161Z,82.60
2019-02-16T20:34:03.095Z,83.30
2019-02-16T20:36:31.381Z,84.00
2019-02-16T20:39:03.393Z,83.70
2019-02-16T20:41:31.580Z,83.70
2019-02-16T20:44:09.063Z,83.60
2019-02-16T20:46:53.940Z,83.80
2019-02-16T20:49:24.935Z,84.80
2019-02-16T20:54:45.424Z,84.50
2019-02-16T20:57:13.741Z,84.60
2019-02-16T20:59:44.940Z,84.90
2019-02-16T21:02:13.227Z,84.90
2019-02-16T21:04:41.428Z,84.80
2019-02-16T21:07:26.096Z,84.80
2019-02-16T21:10:10.902Z,84.70
2019-02-16T21:12:39.202Z,84.60
2019-02-16T21:15:13.705Z,84.50
2019-02-16T21:17:58.522Z,84.70
2019-02-16T21:20:26.757Z,84.70
2019-02-16T21:23:11.677Z,85.00
2019-02-16T21:25:48.885Z,85.20
2019-02-16T21:28:29.179Z,85.70
2019-02-16T21:31:03.429Z,85.60
2019-02-16T21:33:36.398Z,85.80
2019-02-16T21:36:04.607Z,86.20
2019-02-16T21:38:38.785Z,86.60
2019-02-16T21:41:07.100Z,86.30
2019-02-16T21:43:38.011Z,86.50
2019-02-16T21:46:22.919Z,86.80
2019-02-16T21:48:53.946Z,86.70
2019-02-16T21:51:24.866Z,86.80
2019-02-16T21:54:09.884Z,86.90
2019-02-16T21:56:40.769Z,87.10
2019-02-16T21:59:24.162Z,87.30
2019-02-16T22:01:55.244Z,87.60
2019-02-16T22:04:26.217Z,87.50
2019-02-16T22:07:19.862Z,87.50
2019-02-16T22:10:00.141Z,87.70
2019-02-16T22:12:31.489Z,88.00
2019-02-16T22:14:57.736Z,87.80
2019-02-16T22:17:24.003Z,87.80
2019-02-16T22:19:50.353Z,87.90
2019-02-16T22:22:16.840Z,88.10
2019-02-16T22:24:43.340Z,88.40
2019-02-16T22:27:09.674Z,88.20
2019-02-16T22:29:35.981Z,88.30
2019-02-16T22:32:02.459Z,88.50
2019-02-16T22:34:28.887Z,88.50
2019-02-16T22:36:55.395Z,88.70
2019-02-16T22:39:21.674Z,88.80
2019-02-16T22:41:48.099Z,89.00
2019-02-16T22:44:14.483Z,89.00
2019-02-16T22:46:40.909Z,88.90
2019-02-16T22:49:07.336Z,89.10
2019-02-16T22:51:33.626Z,89.10
2019-02-16T22:53:59.893Z,89.20
2019-02-16T22:56:26.501Z,89.10
2019-02-16T22:58:52.834Z,89.40
2019-02-16T23:01:19.521Z,89.30
2019-02-16T23:03:45.920Z,89.40
2019-02-16T23:06:12.382Z,89.50
2019-02-16T23:08:38.796Z,89.60
2019-02-16T23:11:05.277Z,89.70
2019-02-16T23:13:31.789Z,89.40
2019-02-16T23:15:58.350Z,89.60
2019-02-16T23:18:24.693Z,89.60
2019-02-16T23:20:50.953Z,89.80
2019-02-16T23:23:17.388Z,89.80
2019-02-16T23:25:43.856Z,89.90
2019-02-16T23:28:10.381Z,90.00
2019-02-16T23:30:36.770Z,90.10
2019-02-16T23:33:03.265Z,90.10
2019-02-16T23:35:29.669Z,90.30
2019-02-16T23:37:56.135Z,90.00
2019-02-16T23:40:22.393Z,90.10
2019-02-16T23:42:48.752Z,90.10
2019-02-16T23:45:15.189Z,90.10
2019-02-16T23:47:41.568Z,90.10
2019-02-16T23:50:09.554Z,90.10
2019-02-16T23:52:36.004Z,90.20
2019-02-16T23:55:05.348Z,90.30
2019-02-16T23:57:31.830Z,90.30
2019-02-16T23:59:58.088Z,90.40
